Terminal Aerodrome Forecast
Issued by NWS Louisville, KY

Home | Current Version | Previous Version | Text Only | Print | Product List | Glossary On
Versions: 1 2 3 4 5 6 7 8 9 10 11 12 13 14 15 16 17 18
000
FTUS43 KLMK 190900 AAB
TAFLEX
TAF AMD
KLEX 190904Z 1909/2006 VRB03KT 3SM BR BKN080
      TEMPO 1909/1911 1/2SM FG BKN011
     FM191500 26008KT P6SM BKN040
     FM200100 25005KT P6SM BKN130=

USA.gov is the U.S. government's official web portal to all federal, state and local government web resources and services.